createdAt,value
2023-01-31T00:00:05.171Z,20
2023-01-31T00:01:05.164Z,20
2023-01-31T00:02:05.165Z,20
2023-01-31T00:03:05.133Z,20
2023-01-31T00:04:05.124Z,20
2023-01-31T00:05:05.123Z,20
2023-01-31T00:06:05.098Z,20
2023-01-31T00:07:05.088Z,20
2023-01-31T00:08:05.078Z,20
2023-01-31T00:09:05.114Z,20
2023-01-31T00:10:05.058Z,20
2023-01-31T00:11:05.047Z,20
2023-01-31T00:12:05.069Z,20
2023-01-31T00:13:05.024Z,20
2023-01-31T00:14:05.016Z,20
2023-01-31T00:15:05.022Z,20
2023-01-31T00:16:05.000Z,20
2023-01-31T00:17:04.993Z,20
2023-01-31T00:18:04.966Z,20
2023-01-31T00:19:04.958Z,20
2023-01-31T00:20:04.954Z,20
2023-01-31T00:21:04.943Z,20
2023-01-31T00:22:04.955Z,20
2023-01-31T00:23:04.923Z,20
2023-01-31T00:24:04.956Z,20
2023-01-31T00:25:04.892Z,20
2023-01-31T00:26:04.892Z,20
2023-01-31T00:27:04.871Z,20
2023-01-31T00:28:04.862Z,20
2023-01-31T00:29:04.853Z,20
2023-01-31T00:30:04.840Z,20
2023-01-31T00:31:04.826Z,20
2023-01-31T00:32:04.839Z,20
2023-01-31T00:33:04.814Z,20
2023-01-31T00:34:04.805Z,20
2023-01-31T00:35:04.792Z,20
2023-01-31T00:36:04.778Z,20
2023-01-31T00:37:04.765Z,20
2023-01-31T00:38:04.756Z,20
2023-01-31T00:39:04.742Z,20
2023-01-31T00:40:04.729Z,20
2023-01-31T00:41:04.751Z,20
2023-01-31T00:42:04.711Z,20
2023-01-31T00:43:04.700Z,20
2023-01-31T00:44:04.699Z,20
2023-01-31T00:45:04.681Z,20
2023-01-31T00:46:04.672Z,20
2023-01-31T00:47:04.670Z,20
2023-01-31T00:48:04.647Z,20
2023-01-31T00:49:04.634Z,20
2023-01-31T00:50:04.626Z,20
2023-01-31T00:51:04.615Z,20
2023-01-31T00:52:04.610Z,20
2023-01-31T00:53:04.617Z,20
2023-01-31T00:54:04.587Z,20
2023-01-31T00:55:04.580Z,20
2023-01-31T00:56:04.576Z,20
2023-01-31T00:57:04.550Z,20
2023-01-31T00:58:04.551Z,20
2023-01-31T00:59:04.537Z,20
2023-01-31T01:00:04.541Z,20
2023-01-31T01:01:04.524Z,20
2023-01-31T01:02:04.520Z,20
2023-01-31T01:03:04.485Z,20
2023-01-31T01:04:04.499Z,20
2023-01-31T01:05:04.467Z,20
2023-01-31T01:06:04.457Z,16
2023-01-31T01:07:04.465Z,16
2023-01-31T01:08:04.446Z,16
2023-01-31T01:09:04.422Z,16
2023-01-31T01:10:04.411Z,16
2023-01-31T01:11:04.399Z,16
2023-01-31T01:12:04.402Z,16
2023-01-31T01:13:04.394Z,16
2023-01-31T01:14:04.374Z,20
2023-01-31T01:15:04.362Z,20
2023-01-31T01:16:04.347Z,20
2023-01-31T01:17:04.342Z,20
2023-01-31T01:18:04.330Z,20
2023-01-31T01:19:04.350Z,20
2023-01-31T01:20:04.304Z,20
2023-01-31T01:21:04.296Z,20
2023-01-31T01:22:04.289Z,20
2023-01-31T01:23:04.271Z,20
2023-01-31T01:24:04.264Z,20
2023-01-31T01:25:04.256Z,20
2023-01-31T01:26:04.266Z,20
2023-01-31T01:27:04.228Z,20
2023-01-31T01:28:04.220Z,20
2023-01-31T01:29:04.210Z,20
2023-01-31T01:30:04.202Z,20
2023-01-31T01:31:04.188Z,20
2023-01-31T01:32:04.174Z,20
2023-01-31T01:33:04.163Z,20
2023-01-31T01:34:04.176Z,20
2023-01-31T01:35:04.146Z,20
2023-01-31T01:36:04.134Z,20
2023-01-31T01:37:04.126Z,20
2023-01-31T01:38:04.114Z,20
2023-01-31T01:39:04.098Z,20
2023-01-31T01:40:04.112Z,20
2023-01-31T01:41:04.082Z,20
2023-01-31T01:42:04.072Z,20
2023-01-31T01:43:04.059Z,20
2023-01-31T01:44:04.053Z,20
2023-01-31T01:45:04.035Z,20
2023-01-31T01:46:04.025Z,20
2023-01-31T01:47:04.038Z,20
2023-01-31T01:48:04.003Z,20
2023-01-31T01:49:03.993Z,20
2023-01-31T01:50:04.011Z,20
2023-01-31T01:51:03.968Z,20
2023-01-31T01:52:03.958Z,20
2023-01-31T01:53:03.950Z,20
2023-01-31T01:54:03.950Z,20
2023-01-31T01:55:03.966Z,20
2023-01-31T01:56:03.919Z,20
2023-01-31T01:57:03.903Z,20
2023-01-31T01:58:03.895Z,20
2023-01-31T01:59:03.898Z,20
2023-01-31T02:00:03.872Z,20
2023-01-31T02:01:03.883Z,20
2023-01-31T02:02:03.870Z,20
2023-01-31T02:03:03.840Z,20
2023-01-31T02:04:03.842Z,20
2023-01-31T02:05:03.817Z,20
2023-01-31T02:06:03.807Z,20
2023-01-31T02:07:03.794Z,20
2023-01-31T02:08:03.786Z,20
2023-01-31T02:09:03.774Z,20
2023-01-31T02:10:03.785Z,20
2023-01-31T02:11:03.753Z,20
2023-01-31T02:12:03.746Z,20
2023-01-31T02:13:03.734Z,20
2023-01-31T02:14:03.722Z,20
2023-01-31T02:15:03.726Z,20
2023-01-31T02:16:03.741Z,20
2023-01-31T02:17:03.692Z,20
2023-01-31T02:18:03.678Z,20
2023-01-31T02:19:03.671Z,20
2023-01-31T02:20:03.659Z,20
2023-01-31T02:21:03.652Z,20
2023-01-31T02:22:03.654Z,20
2023-01-31T02:23:03.627Z,20
2023-01-31T02:24:03.617Z,20
2023-01-31T02:25:03.625Z,20
2023-01-31T02:26:03.589Z,20
2023-01-31T02:27:03.600Z,20
2023-01-31T02:28:03.570Z,20
2023-01-31T02:29:03.573Z,20
2023-01-31T02:30:03.548Z,20
2023-01-31T02:31:03.536Z,20
2023-01-31T02:32:03.522Z,20
2023-01-31T02:33:03.518Z,20
2023-01-31T02:34:03.506Z,20
2023-01-31T02:35:03.515Z,20
2023-01-31T02:36:03.483Z,20
2023-01-31T02:37:03.473Z,20
2023-01-31T02:38:03.463Z,20
2023-01-31T02:39:03.474Z,20
2023-01-31T02:40:03.437Z,20
2023-01-31T02:41:03.434Z,20
2023-01-31T02:42:03.448Z,20
2023-01-31T02:43:03.406Z,20
2023-01-31T02:44:03.400Z,20
2023-01-31T02:45:03.400Z,20
2023-01-31T02:46:03.378Z,20
2023-01-31T02:47:03.378Z,20
2023-01-31T02:48:03.383Z,20
2023-01-31T02:49:03.343Z,20
2023-01-31T02:50:03.331Z,20
2023-01-31T02:51:03.372Z,20
2023-01-31T02:52:03.312Z,20
2023-01-31T02:53:03.300Z,20
2023-01-31T02:54:03.292Z,20
2023-01-31T02:55:03.279Z,20
2023-01-31T02:56:03.269Z,20
2023-01-31T02:57:03.285Z,20
2023-01-31T02:58:03.247Z,20
2023-01-31T02:59:03.239Z,20
2023-01-31T03:00:03.240Z,20
2023-01-31T03:01:03.216Z,20
2023-01-31T03:02:03.205Z,20
2023-01-31T03:03:03.220Z,20
2023-01-31T03:04:03.186Z,20
2023-01-31T03:05:03.167Z,20
2023-01-31T03:06:03.163Z,20
2023-01-31T03:07:03.379Z,20
2023-01-31T03:08:03.140Z,20
2023-01-31T03:09:03.127Z,20
2023-01-31T03:10:03.115Z,20
2023-01-31T03:11:03.108Z,20
2023-01-31T03:12:03.117Z,20
2023-01-31T03:13:03.101Z,20
2023-01-31T03:14:03.076Z,20
2023-01-31T03:15:03.063Z,20
2023-01-31T03:16:03.052Z,20
2023-01-31T03:17:03.047Z,20
2023-01-31T03:18:03.051Z,20
2023-01-31T03:19:03.024Z,20
2023-01-31T03:20:03.009Z,20
2023-01-31T03:21:02.997Z,20
2023-01-31T03:22:02.996Z,20
2023-01-31T03:23:02.984Z,20
2023-01-31T03:24:02.973Z,20
2023-01-31T03:25:02.955Z,20
2023-01-31T03:26:02.945Z,20
2023-01-31T03:27:02.954Z,20
2023-01-31T03:28:02.927Z,20
2023-01-31T03:29:02.911Z,20
2023-01-31T03:30:02.900Z,20
2023-01-31T03:31:02.891Z,20
2023-01-31T03:32:02.883Z,20
2023-01-31T03:33:02.871Z,20
2023-01-31T03:34:02.872Z,20
2023-01-31T03:35:02.861Z,20
2023-01-31T03:36:02.841Z,20
2023-01-31T03:37:02.841Z,20
2023-01-31T03:38:02.861Z,20
2023-01-31T03:39:02.821Z,20
2023-01-31T03:40:02.825Z,20
2023-01-31T03:41:02.805Z,20
2023-01-31T03:42:02.832Z,20
2023-01-31T03:43:02.765Z,20
2023-01-31T03:44:02.825Z,20
2023-01-31T03:45:02.746Z,20
2023-01-31T03:46:02.734Z,20
2023-01-31T03:47:02.723Z,20
2023-01-31T03:48:02.706Z,20
2023-01-31T03:49:02.698Z,20
2023-01-31T03:50:02.715Z,20
2023-01-31T03:51:02.674Z,20
2023-01-31T03:52:02.673Z,20
2023-01-31T03:53:02.662Z,20
2023-01-31T03:54:02.675Z,20
2023-01-31T03:55:02.636Z,20
2023-01-31T03:56:02.632Z,20
2023-01-31T03:57:02.612Z,20
2023-01-31T03:58:02.607Z,20
2023-01-31T03:59:02.632Z,20
2023-01-31T04:00:02.582Z,20
2023-01-31T04:01:02.570Z,24
2023-01-31T04:02:02.563Z,20
2023-01-31T04:03:02.550Z,20
2023-01-31T04:04:02.543Z,20
2023-01-31T04:05:02.555Z,20
2023-01-31T04:06:10.115Z,20
2023-01-31T04:07:02.548Z,20
2023-01-31T04:08:02.514Z,20
2023-01-31T04:09:02.486Z,20
2023-01-31T04:10:02.490Z,20
2023-01-31T04:11:02.482Z,20
2023-01-31T04:12:02.461Z,20
2023-01-31T04:13:02.463Z,20
2023-01-31T04:14:02.441Z,20
2023-01-31T04:15:02.429Z,24
2023-01-31T04:16:02.418Z,20
2023-01-31T04:17:02.422Z,24
2023-01-31T04:18:02.411Z,20
2023-01-31T04:19:02.385Z,20
2023-01-31T04:20:02.378Z,20
2023-01-31T04:21:09.943Z,24
2023-01-31T04:22:02.351Z,20
2023-01-31T04:23:02.346Z,24
2023-01-31T04:24:02.334Z,20
2023-01-31T04:25:02.320Z,20
2023-01-31T04:26:02.313Z,20
2023-01-31T04:27:02.308Z,20
2023-01-31T04:28:02.315Z,20
2023-01-31T04:29:02.284Z,20
2023-01-31T04:30:02.274Z,20
2023-01-31T04:31:02.273Z,20
2023-01-31T04:32:02.250Z,20
2023-01-31T04:33:02.275Z,20
2023-01-31T04:34:02.262Z,20
2023-01-31T04:35:02.219Z,20
2023-01-31T04:36:02.215Z,20
2023-01-31T04:37:02.203Z,20
2023-01-31T04:38:02.187Z,20
2023-01-31T04:39:02.174Z,20
2023-01-31T04:40:02.166Z,20
2023-01-31T04:41:02.157Z,20
2023-01-31T04:42:02.148Z,20
2023-01-31T04:43:02.137Z,20
2023-01-31T04:44:02.127Z,20
2023-01-31T04:45:02.123Z,20
2023-01-31T04:46:02.104Z,20
2023-01-31T04:47:02.100Z,20
2023-01-31T04:48:02.098Z,20
2023-01-31T04:49:02.079Z,24
2023-01-31T04:50:02.100Z,20
2023-01-31T04:51:02.051Z,24
2023-01-31T04:52:02.084Z,20
2023-01-31T04:53:02.030Z,20
2023-01-31T04:54:02.021Z,20
2023-01-31T04:55:02.006Z,20
2023-01-31T04:56:02.020Z,20
2023-01-31T04:57:02.003Z,20
2023-01-31T04:58:01.981Z,20
2023-01-31T04:59:01.968Z,20
2023-01-31T05:00:01.951Z,20
2023-01-31T05:01:01.945Z,20
2023-01-31T05:02:01.933Z,20
2023-01-31T05:03:01.923Z,20
2023-01-31T05:04:01.915Z,20
2023-01-31T05:05:01.898Z,20
2023-01-31T05:06:01.893Z,20
2023-01-31T05:07:01.876Z,20
2023-01-31T05:08:01.868Z,20
2023-01-31T05:09:01.855Z,20
2023-01-31T05:10:01.846Z,20
2023-01-31T05:11:01.840Z,20
2023-01-31T05:12:01.827Z,20
2023-01-31T05:13:01.821Z,20
2023-01-31T05:14:01.802Z,20
2023-01-31T05:15:01.795Z,20
2023-01-31T05:16:01.783Z,20
2023-01-31T05:17:01.770Z,20
2023-01-31T05:18:01.762Z,20
2023-01-31T05:19:01.747Z,20
2023-01-31T05:20:01.735Z,20
2023-01-31T05:21:01.729Z,20
2023-01-31T05:22:01.737Z,20
2023-01-31T05:23:01.702Z,24
2023-01-31T05:24:01.693Z,20
2023-01-31T05:25:01.689Z,20
2023-01-31T05:26:01.674Z,20
2023-01-31T05:27:01.662Z,20
2023-01-31T05:28:01.653Z,20
2023-01-31T05:29:01.640Z,20
2023-01-31T05:30:01.637Z,28
2023-01-31T05:31:01.620Z,20
2023-01-31T05:32:01.611Z,24
2023-01-31T05:33:01.601Z,4
2023-01-31T05:34:01.588Z,20
2023-01-31T05:35:01.580Z,20
2023-01-31T05:36:01.570Z,20
2023-01-31T05:37:01.563Z,20
2023-01-31T05:38:01.541Z,20
2023-01-31T05:39:01.532Z,20
2023-01-31T05:40:01.519Z,20
2023-01-31T05:41:01.520Z,20
2023-01-31T05:42:01.498Z,20
2023-01-31T05:43:01.490Z,20
2023-01-31T05:44:01.479Z,20
2023-01-31T05:45:01.470Z,20
2023-01-31T05:46:01.457Z,20
2023-01-31T05:47:01.448Z,24
2023-01-31T05:48:01.441Z,24
2023-01-31T05:49:01.445Z,24
2023-01-31T05:50:01.417Z,24
2023-01-31T05:51:01.400Z,24
2023-01-31T05:52:01.397Z,24
2023-01-31T05:53:01.397Z,24
2023-01-31T05:54:08.931Z,24
2023-01-31T05:55:08.930Z,20
2023-01-31T05:56:01.350Z,20
2023-01-31T05:57:09.911Z,20
2023-01-31T05:58:08.889Z,20
2023-01-31T05:59:08.878Z,20
2023-01-31T06:00:01.316Z,20
2023-01-31T06:01:01.296Z,20
2023-01-31T06:02:11.141Z,20
2023-01-31T06:03:01.273Z,24
2023-01-31T06:04:01.263Z,20
2023-01-31T06:05:01.255Z,20
2023-01-31T06:06:01.257Z,20
2023-01-31T06:07:08.799Z,20
2023-01-31T06:08:01.221Z,20
2023-01-31T06:09:01.212Z,24
2023-01-31T06:10:01.202Z,20
2023-01-31T06:11:01.201Z,20
2023-01-31T06:12:08.765Z,20
2023-01-31T06:13:08.746Z,24
2023-01-31T06:14:08.739Z,20
2023-01-31T06:15:08.730Z,20
2023-01-31T06:16:08.714Z,20
2023-01-31T06:17:01.129Z,20
2023-01-31T06:18:01.120Z,20
2023-01-31T06:19:01.116Z,24
2023-01-31T06:20:01.103Z,20
2023-01-31T06:21:01.102Z,20
2023-01-31T06:22:01.080Z,20
2023-01-31T06:23:01.072Z,20
2023-01-31T06:24:01.054Z,20
2023-01-31T06:25:09.651Z,20
2023-01-31T06:26:01.042Z,24
2023-01-31T06:27:01.026Z,20
2023-01-31T06:28:01.013Z,24
2023-01-31T06:29:01.005Z,24
2023-01-31T06:30:01.000Z,24
2023-01-31T06:31:00.990Z,24
2023-01-31T06:32:00.975Z,24
2023-01-31T06:33:00.966Z,24
2023-01-31T06:34:00.976Z,24
2023-01-31T06:35:00.946Z,24
2023-01-31T06:36:00.931Z,24
2023-01-31T06:37:00.923Z,24
2023-01-31T06:38:00.915Z,24
2023-01-31T06:39:00.899Z,24
2023-01-31T06:40:00.893Z,28
2023-01-31T06:41:00.872Z,24
2023-01-31T06:42:00.898Z,24
2023-01-31T06:43:00.852Z,24
2023-01-31T06:44:00.836Z,28
2023-01-31T06:45:00.833Z,24
2023-01-31T06:46:00.822Z,28
2023-01-31T06:47:00.804Z,28
2023-01-31T06:48:00.822Z,28
2023-01-31T06:49:00.790Z,28
2023-01-31T06:50:00.775Z,32
2023-01-31T06:51:00.770Z,28
2023-01-31T06:52:00.758Z,32
2023-01-31T06:53:00.750Z,32
2023-01-31T06:54:00.735Z,32
2023-01-31T06:55:00.728Z,36
2023-01-31T06:56:00.713Z,28
2023-01-31T06:57:00.759Z,32
2023-01-31T06:58:00.699Z,36
2023-01-31T06:59:00.691Z,36
2023-01-31T07:00:00.666Z,40
2023-01-31T07:01:00.671Z,40
2023-01-31T07:02:00.677Z,48
2023-01-31T07:03:00.644Z,40
2023-01-31T07:04:00.638Z,52
2023-01-31T07:05:00.614Z,56
2023-01-31T07:06:00.648Z,52
2023-01-31T07:07:00.589Z,48
2023-01-31T07:08:00.596Z,56
2023-01-31T07:09:00.592Z,60
2023-01-31T07:10:00.558Z,68
2023-01-31T07:11:00.547Z,72
2023-01-31T07:12:00.539Z,72
2023-01-31T07:13:00.530Z,76
2023-01-31T07:14:00.521Z,76
2023-01-31T07:15:00.511Z,80
2023-01-31T07:16:00.493Z,88
2023-01-31T07:17:00.487Z,88
2023-01-31T07:18:00.478Z,92
2023-01-31T07:19:00.468Z,92
2023-01-31T07:20:00.469Z,108
2023-01-31T07:21:00.444Z,120
2023-01-31T07:22:00.449Z,120
2023-01-31T07:23:00.427Z,144
2023-01-31T07:24:00.412Z,144
2023-01-31T07:25:00.404Z,140
2023-01-31T07:26:00.400Z,152
2023-01-31T07:27:00.378Z,172
2023-01-31T07:28:00.402Z,172
2023-01-31T07:29:00.356Z,224
2023-01-31T07:30:00.345Z,272
2023-01-31T07:31:07.902Z,252
2023-01-31T07:32:00.326Z,232
2023-01-31T07:33:00.320Z,184
2023-01-31T07:34:00.326Z,248
2023-01-31T07:35:00.290Z,268
2023-01-31T07:36:00.282Z,276
2023-01-31T07:37:00.270Z,276
2023-01-31T07:38:00.263Z,320
2023-01-31T07:39:00.250Z,316
2023-01-31T07:40:00.245Z,360
2023-01-31T07:41:00.231Z,316
2023-01-31T07:42:00.215Z,328
2023-01-31T07:43:00.217Z,436
2023-01-31T07:44:00.195Z,396
2023-01-31T07:45:00.293Z,388
2023-01-31T07:47:27.728Z,408
2023-01-31T07:48:27.471Z,296
2023-01-31T07:50:38.194Z,356
2023-01-31T07:51:38.149Z,516
2023-01-31T07:52:38.171Z,372
2023-01-31T07:53:39.116Z,528
2023-01-31T07:54:38.843Z,484
2023-01-31T07:55:38.116Z,616
2023-01-31T07:56:38.135Z,760
2023-01-31T07:57:38.108Z,528
2023-01-31T07:58:38.064Z,652
2023-01-31T07:59:38.074Z,768
2023-01-31T08:00:39.063Z,756
2023-01-31T08:01:38.054Z,816
2023-01-31T08:02:38.031Z,1240
2023-01-31T08:03:38.034Z,1044
2023-01-31T08:04:38.000Z,1096
2023-01-31T08:05:38.002Z,1020
2023-01-31T08:06:37.981Z,1084
2023-01-31T08:07:37.964Z,1264
2023-01-31T08:08:37.970Z,1172
2023-01-31T08:09:37.968Z,1548
2023-01-31T08:10:37.937Z,1556
2023-01-31T08:11:37.924Z,1372
2023-01-31T08:12:38.765Z,1608
2023-01-31T08:13:37.906Z,1624
2023-01-31T08:14:37.907Z,1540
2023-01-31T08:15:37.935Z,1760
2023-01-31T08:16:37.871Z,1656
2023-01-31T08:17:37.864Z,1656
2023-01-31T08:18:37.851Z,1728
2023-01-31T08:19:37.845Z,2136
2023-01-31T08:20:37.834Z,2336
2023-01-31T08:21:38.019Z,2560
2023-01-31T08:22:45.403Z,2220
2023-01-31T08:23:46.476Z,2628
2023-01-31T08:24:37.803Z,2656
2023-01-31T08:27:17.074Z,1580
2023-01-31T08:28:17.055Z,1392
2023-01-31T08:29:17.051Z,1108
2023-01-31T08:30:17.046Z,1028
2023-01-31T08:31:16.992Z,1176
2023-01-31T08:32:16.981Z,1252
2023-01-31T08:33:16.997Z,1456
2023-01-31T08:35:34.288Z,2164
2023-01-31T08:36:34.385Z,2360
2023-01-31T08:38:50.659Z,2752
2023-01-31T08:39:50.622Z,2740
2023-01-31T08:40:50.613Z,2580
2023-01-31T08:41:50.578Z,2832
2023-01-31T08:42:50.551Z,3132
2023-01-31T08:43:50.724Z,3508
2023-01-31T08:44:58.207Z,3936
2023-01-31T08:45:50.609Z,3736
2023-01-31T08:48:06.942Z,3760
2023-01-31T08:49:06.843Z,3520
2023-01-31T08:50:06.830Z,2756
2023-01-31T08:51:06.801Z,2288
2023-01-31T08:52:06.872Z,1936
2023-01-31T08:53:07.781Z,1800
2023-01-31T08:54:06.776Z,1620
2023-01-31T08:55:06.794Z,1452
2023-01-31T08:56:06.752Z,1452
2023-01-31T08:57:06.794Z,1224
2023-01-31T08:58:06.744Z,1008
2023-01-31T08:59:06.714Z,840
2023-01-31T09:00:06.705Z,776
2023-01-31T09:01:06.706Z,920
2023-01-31T09:02:06.956Z,960
2023-01-31T09:03:14.501Z,940
2023-01-31T09:04:06.662Z,1032
2023-01-31T09:05:15.251Z,1412
2023-01-31T09:06:06.650Z,1508
2023-01-31T09:07:06.644Z,1232
2023-01-31T09:08:06.635Z,972
2023-01-31T09:09:06.621Z,1040
2023-01-31T09:10:06.628Z,1248
2023-01-31T09:11:06.585Z,1708
2023-01-31T09:12:06.676Z,1660
2023-01-31T09:13:06.714Z,1592
2023-01-31T09:14:06.581Z,1076
2023-01-31T09:15:06.559Z,1084
2023-01-31T09:16:06.534Z,1144
2023-01-31T09:17:14.123Z,1236
2023-01-31T09:18:06.516Z,1356
2023-01-31T09:19:06.525Z,1276
2023-01-31T09:20:06.534Z,1300
2023-01-31T09:21:06.486Z,1340
2023-01-31T09:22:06.539Z,1304
2023-01-31T09:23:06.498Z,1432
2023-01-31T09:24:06.484Z,1696
2023-01-31T09:25:06.467Z,1752
2023-01-31T09:26:06.431Z,1644
2023-01-31T09:27:06.500Z,1384
2023-01-31T09:28:06.408Z,1244
2023-01-31T09:29:06.405Z,1104
2023-01-31T09:30:58.872Z,1324
2023-01-31T09:32:06.424Z,1288
2023-01-31T09:32:58.822Z,1228
2023-01-31T09:33:58.831Z,1100
2023-01-31T09:34:58.798Z,1184
2023-01-31T09:35:58.798Z,1068
2023-01-31T09:36:58.891Z,1176
2023-01-31T09:37:58.769Z,1232
2023-01-31T09:38:58.761Z,1308
2023-01-31T09:39:58.746Z,1156
2023-01-31T09:40:58.757Z,1020
2023-01-31T09:41:58.726Z,1092
2023-01-31T09:42:58.722Z,1092
2023-01-31T09:43:58.698Z,1160
2023-01-31T09:44:58.708Z,1152
2023-01-31T09:45:58.677Z,1192
2023-01-31T09:46:58.673Z,1288
2023-01-31T09:47:59.448Z,1240
2023-01-31T09:48:58.674Z,1176
2023-01-31T09:49:58.643Z,1236
2023-01-31T09:50:58.639Z,1176
2023-01-31T09:51:58.617Z,1164
2023-01-31T09:52:58.614Z,1016
2023-01-31T09:53:58.595Z,980
2023-01-31T09:54:58.590Z,904
2023-01-31T09:55:58.592Z,1012
2023-01-31T09:56:58.568Z,1000
2023-01-31T09:57:58.558Z,848
2023-01-31T09:58:58.550Z,808
2023-01-31T09:59:58.534Z,724
2023-01-31T10:00:58.532Z,728
2023-01-31T10:01:58.511Z,944
2023-01-31T10:02:58.497Z,956
2023-01-31T10:03:58.494Z,864
2023-01-31T10:04:58.478Z,1048
2023-01-31T10:05:58.485Z,900
2023-01-31T10:06:58.470Z,1136
2023-01-31T10:07:58.474Z,844
2023-01-31T10:08:58.438Z,804
2023-01-31T10:09:58.433Z,788
2023-01-31T10:10:58.420Z,788
2023-01-31T10:11:58.407Z,700
2023-01-31T10:12:58.411Z,512
2023-01-31T10:13:58.393Z,500
2023-01-31T10:14:58.383Z,540
2023-01-31T10:15:58.368Z,668
2023-01-31T10:16:58.351Z,792
2023-01-31T10:17:58.345Z,960
2023-01-31T10:18:58.350Z,932
2023-01-31T10:19:58.339Z,680
2023-01-31T10:20:58.312Z,548
2023-01-31T10:21:58.298Z,472
2023-01-31T10:22:58.301Z,488
2023-01-31T10:23:58.287Z,520
2023-01-31T10:24:58.289Z,620
2023-01-31T10:25:58.258Z,716
2023-01-31T10:26:58.265Z,804
2023-01-31T10:27:58.232Z,680
2023-01-31T10:28:58.227Z,648
2023-01-31T10:29:58.213Z,588
2023-01-31T10:30:58.223Z,584
2023-01-31T10:31:58.196Z,536
2023-01-31T10:32:58.186Z,576
2023-01-31T10:33:58.184Z,628
2023-01-31T10:34:58.162Z,816
2023-01-31T10:35:58.160Z,776
2023-01-31T10:36:58.163Z,752
2023-01-31T10:37:58.131Z,668
2023-01-31T10:38:58.133Z,580
2023-01-31T10:39:58.105Z,604
2023-01-31T10:40:58.104Z,568
2023-01-31T10:41:58.109Z,568
2023-01-31T10:42:58.074Z,528
2023-01-31T10:44:07.698Z,520
2023-01-31T10:46:33.287Z,524
2023-01-31T10:47:43.242Z,492
2023-01-31T10:48:40.811Z,432
2023-01-31T10:49:43.126Z,448
2023-01-31T10:50:41.897Z,500
2023-01-31T10:51:40.842Z,508
2023-01-31T10:52:40.798Z,592
2023-01-31T10:57:34.742Z,944
2023-01-31T11:00:09.593Z,720
2023-01-31T11:01:17.199Z,788
2023-01-31T11:02:18.998Z,920
2023-01-31T11:03:17.172Z,912
2023-01-31T11:04:17.202Z,1052
2023-01-31T11:05:18.945Z,1116
2023-01-31T11:06:18.117Z,1096
2023-01-31T11:10:00.734Z,1124
2023-01-31T11:11:08.321Z,1292
2023-01-31T11:15:19.522Z,932
2023-01-31T11:16:28.088Z,844
2023-01-31T11:17:27.040Z,936
2023-01-31T11:18:29.962Z,1008
2023-01-31T11:19:29.337Z,940
2023-01-31T11:20:27.018Z,952
2023-01-31T11:22:49.671Z,1068
2023-01-31T11:23:49.625Z,1180
2023-01-31T11:24:49.615Z,1692
2023-01-31T11:25:49.648Z,1760
2023-01-31T11:26:49.591Z,1916
2023-01-31T11:27:49.578Z,1416
2023-01-31T11:28:49.573Z,1576
2023-01-31T11:29:49.555Z,1368
2023-01-31T11:30:49.573Z,980
2023-01-31T11:31:49.569Z,1060
2023-01-31T11:32:49.602Z,1180
2023-01-31T11:33:49.510Z,1388
2023-01-31T11:34:49.554Z,1476
2023-01-31T11:35:49.578Z,1444
2023-01-31T11:36:49.479Z,1532
2023-01-31T11:37:49.471Z,1300
2023-01-31T11:38:49.462Z,1104
2023-01-31T11:39:49.447Z,1216
2023-01-31T11:40:49.462Z,1648
2023-01-31T11:41:49.431Z,2472
2023-01-31T11:42:49.422Z,1956
2023-01-31T11:43:49.425Z,1560
2023-01-31T11:44:49.427Z,1480
2023-01-31T11:45:49.390Z,1432
2023-01-31T11:46:49.396Z,1404
2023-01-31T11:47:49.364Z,1500
2023-01-31T11:48:49.356Z,1116
2023-01-31T11:49:49.364Z,996
2023-01-31T11:50:49.339Z,976
2023-01-31T11:51:49.323Z,1012
2023-01-31T11:52:49.314Z,1000
2023-01-31T11:53:49.328Z,836
2023-01-31T11:54:49.356Z,832
2023-01-31T11:55:49.281Z,752
2023-01-31T11:56:49.274Z,740
2023-01-31T11:57:49.260Z,612
2023-01-31T11:58:49.246Z,644
2023-01-31T11:59:49.245Z,632
2023-01-31T12:00:49.241Z,516
2023-01-31T12:01:49.219Z,480
2023-01-31T12:02:49.208Z,512
2023-01-31T12:03:49.198Z,604
2023-01-31T12:04:49.181Z,556
2023-01-31T12:05:49.184Z,460
2023-01-31T12:06:49.187Z,468
2023-01-31T12:07:49.199Z,660
2023-01-31T12:08:49.200Z,664
2023-01-31T12:09:49.236Z,564
2023-01-31T12:10:49.125Z,772
2023-01-31T12:11:49.131Z,964
2023-01-31T12:12:49.111Z,904
2023-01-31T12:13:49.093Z,752
2023-01-31T12:14:49.132Z,664
2023-01-31T12:15:49.077Z,692
2023-01-31T12:16:49.064Z,744
2023-01-31T12:17:49.046Z,696
2023-01-31T12:18:49.044Z,640
2023-01-31T12:19:49.025Z,552
2023-01-31T12:20:49.013Z,652
2023-01-31T12:21:49.009Z,624
2023-01-31T12:22:49.000Z,540
2023-01-31T12:23:48.985Z,552
2023-01-31T12:24:48.971Z,564
2023-01-31T12:25:48.961Z,552
2023-01-31T12:26:48.952Z,600
2023-01-31T12:27:48.945Z,584
2023-01-31T12:28:48.977Z,664
2023-01-31T12:29:48.922Z,756
2023-01-31T12:30:48.916Z,760
2023-01-31T12:31:48.968Z,652
2023-01-31T12:32:48.897Z,620
2023-01-31T12:33:48.886Z,576
2023-01-31T12:34:48.922Z,716
2023-01-31T12:35:48.884Z,772
2023-01-31T12:36:48.848Z,900
2023-01-31T12:37:48.853Z,1024
2023-01-31T12:38:48.825Z,1028
2023-01-31T12:39:48.813Z,832
2023-01-31T12:40:48.805Z,768
2023-01-31T12:41:48.799Z,684
2023-01-31T12:42:48.781Z,660
2023-01-31T12:43:48.774Z,780
2023-01-31T12:44:48.957Z,796
2023-01-31T12:45:48.759Z,764
2023-01-31T12:46:48.752Z,744
2023-01-31T12:47:48.742Z,596
2023-01-31T12:48:48.727Z,556
2023-01-31T12:49:48.710Z,556
2023-01-31T12:50:48.702Z,680
2023-01-31T12:51:48.712Z,800
2023-01-31T12:52:48.684Z,652
2023-01-31T12:53:48.710Z,756
2023-01-31T12:54:48.660Z,740
2023-01-31T12:55:48.649Z,776
2023-01-31T12:56:48.649Z,600
2023-01-31T12:57:48.632Z,596
2023-01-31T12:58:48.620Z,664
2023-01-31T12:59:48.601Z,628
2023-01-31T13:00:48.595Z,536
2023-01-31T13:01:48.586Z,584
2023-01-31T13:02:48.584Z,636
2023-01-31T13:03:48.574Z,604
2023-01-31T13:04:48.548Z,684
2023-01-31T13:05:48.554Z,752
2023-01-31T13:06:48.529Z,680
2023-01-31T13:07:48.523Z,664
2023-01-31T13:08:48.514Z,836
2023-01-31T13:09:48.495Z,772
2023-01-31T13:10:48.500Z,660
2023-01-31T13:11:48.491Z,596
2023-01-31T13:12:48.472Z,604
2023-01-31T13:13:48.463Z,552
2023-01-31T13:14:48.450Z,608
2023-01-31T13:15:48.434Z,628
2023-01-31T13:16:48.461Z,672
2023-01-31T13:17:48.414Z,596
2023-01-31T13:18:48.404Z,664
2023-01-31T13:19:48.398Z,556
2023-01-31T13:20:48.386Z,532
2023-01-31T13:21:48.394Z,600
2023-01-31T13:22:48.374Z,552
2023-01-31T13:23:48.358Z,624
2023-01-31T13:24:48.338Z,672
2023-01-31T13:25:48.331Z,692
2023-01-31T13:26:48.329Z,636
2023-01-31T13:27:48.331Z,596
2023-01-31T13:28:48.305Z,560
2023-01-31T13:29:48.289Z,592
2023-01-31T13:30:48.287Z,644
2023-01-31T13:31:48.282Z,696
2023-01-31T13:32:48.264Z,664
2023-01-31T13:33:48.247Z,724
2023-01-31T13:34:48.234Z,588
2023-01-31T13:35:48.225Z,628
2023-01-31T13:36:48.306Z,636
2023-01-31T13:37:49.224Z,576
2023-01-31T13:38:48.195Z,572
2023-01-31T13:39:48.182Z,468
2023-01-31T13:40:48.169Z,460
2023-01-31T13:41:48.161Z,512
2023-01-31T13:42:48.154Z,548
2023-01-31T13:43:48.147Z,616
2023-01-31T13:44:48.190Z,684
2023-01-31T13:45:48.139Z,648
2023-01-31T13:46:48.113Z,616
2023-01-31T13:47:48.102Z,504
2023-01-31T13:48:48.090Z,504
2023-01-31T13:49:48.076Z,484
2023-01-31T13:50:48.074Z,452
2023-01-31T13:51:48.081Z,468
2023-01-31T13:52:48.043Z,524
2023-01-31T13:53:48.041Z,556
2023-01-31T13:54:48.019Z,488
2023-01-31T13:55:48.018Z,652
2023-01-31T13:56:48.026Z,892
2023-01-31T13:57:48.010Z,852
2023-01-31T13:58:47.979Z,796
2023-01-31T13:59:47.972Z,864
2023-01-31T14:00:47.964Z,768
2023-01-31T14:01:47.959Z,696
2023-01-31T14:02:47.941Z,640
2023-01-31T14:03:47.942Z,632
2023-01-31T14:04:47.915Z,848
2023-01-31T14:05:47.904Z,832
2023-01-31T14:06:47.899Z,768
2023-01-31T14:07:47.886Z,628
2023-01-31T14:08:47.880Z,648
2023-01-31T14:09:47.933Z,696
2023-01-31T14:10:47.855Z,596
2023-01-31T14:11:47.841Z,640
2023-01-31T14:12:49.609Z,564
2023-01-31T14:13:49.062Z,652
2023-01-31T14:14:47.839Z,428
2023-01-31T14:15:47.806Z,568
2023-01-31T14:16:47.793Z,504
2023-01-31T14:17:47.796Z,384
2023-01-31T14:18:47.774Z,344
2023-01-31T14:19:47.770Z,312